createdAt,value
2018-12-19T00:04:04.189Z,13.40
2018-12-19T00:10:07.834Z,13.70
2018-12-19T00:16:11.230Z,13.00
2018-12-19T00:22:14.650Z,13.40
2018-12-19T00:28:18.097Z,13.30
2018-12-19T00:34:21.497Z,12.90
2018-12-19T00:40:25.005Z,12.30
2018-12-19T00:46:28.722Z,14.10
2018-12-19T00:52:32.482Z,12.60
2018-12-19T00:58:35.916Z,12.50
2018-12-19T01:04:39.334Z,13.50
2018-12-19T01:10:43.846Z,13.90
2018-12-19T01:16:47.266Z,13.60
2018-12-19T01:22:50.674Z,13.80
2018-12-19T01:28:54.732Z,13.80
2018-12-19T01:34:58.130Z,12.10
2018-12-19T01:41:04.490Z,12.00
2018-12-19T01:47:07.980Z,12.50
2018-12-19T01:53:11.382Z,12.40
2018-12-19T01:59:14.840Z,12.40
2018-12-19T02:05:18.246Z,12.90
2018-12-19T02:11:21.679Z,13.70
2018-12-19T02:17:25.132Z,13.10
2018-12-19T02:23:28.626Z,12.40
2018-12-19T02:29:32.181Z,11.70
2018-12-19T02:35:35.595Z,12.30
2018-12-19T02:41:39.026Z,12.60
2018-12-19T02:47:42.532Z,13.00
2018-12-19T02:53:45.961Z,12.80
2018-12-19T02:59:49.495Z,12.10
2018-12-19T03:05:52.924Z,11.60
2018-12-19T03:11:56.316Z,11.40
2018-12-19T03:17:59.872Z,11.50
2018-12-19T03:24:03.371Z,11.90
2018-12-19T03:30:07.189Z,12.20
2018-12-19T03:36:10.612Z,12.30
2018-12-19T03:42:14.066Z,12.20
2018-12-19T03:48:22.846Z,11.40
2018-12-19T03:54:26.523Z,11.90
2018-12-19T04:00:29.929Z,11.60
2018-12-19T04:06:33.330Z,11.20
2018-12-19T04:12:36.869Z,10.30
2018-12-19T04:18:40.263Z,9.90
2018-12-19T04:24:44.499Z,10.20
2018-12-19T04:30:47.908Z,10.90
2018-12-19T04:36:51.324Z,11.80
2018-12-19T04:42:54.793Z,10.60
2018-12-19T04:48:58.298Z,10.20
2018-12-19T04:55:01.761Z,10.10
2018-12-19T05:01:05.223Z,11.10
2018-12-19T05:07:08.701Z,10.00
2018-12-19T05:13:12.122Z,10.80
2018-12-19T05:19:18.534Z,11.30
2018-12-19T05:25:21.963Z,10.60
2018-12-19T05:31:25.370Z,10.20
2018-12-19T05:37:28.786Z,11.00
2018-12-19T05:43:32.204Z,11.30
2018-12-19T05:49:35.918Z,11.80
2018-12-19T05:55:39.387Z,11.20
2018-12-19T06:01:42.792Z,11.90
2018-12-19T06:07:46.229Z,12.90
2018-12-19T06:13:49.724Z,12.00
2018-12-19T06:19:53.150Z,9.60
2018-12-19T06:25:56.606Z,9.90
2018-12-19T06:32:00.044Z,8.70
